sensor_id;sensor_type;location;lat;lon;timestamp;pressure;altitude;pressure_sealevel;temperature;humidity
65659;BME280;60181;53.258;6.932;2023-03-01T00:03:39;103402.53;;;14.42;60.09
65659;BME280;60181;53.258;6.932;2023-03-01T00:07:43;103400.71;;;14.41;59.96
65659;BME280;60181;53.258;6.932;2023-03-01T00:11:47;103398.79;;;14.41;60.35
65659;BME280;60181;53.258;6.932;2023-03-01T00:15:51;103397.97;;;14.41;60.00
65659;BME280;60181;53.258;6.932;2023-03-01T00:19:55;103396.61;;;14.41;60.10
65659;BME280;60181;53.258;6.932;2023-03-01T00:23:59;103393.37;;;14.40;60.17
65659;BME280;60181;53.258;6.932;2023-03-01T00:28:03;103391.67;;;14.39;60.04
65659;BME280;60181;53.258;6.932;2023-03-01T00:32:07;103389.89;;;14.39;60.10
65659;BME280;60181;53.258;6.932;2023-03-01T00:36:12;103388.32;;;14.38;60.10
65659;BME280;60181;53.258;6.932;2023-03-01T00:40:15;103387.60;;;14.37;60.18
65659;BME280;60181;53.258;6.932;2023-03-01T00:44:19;103386.39;;;14.36;60.12
65659;BME280;60181;53.258;6.932;2023-03-01T00:48:23;103384.85;;;14.35;60.12
65659;BME280;60181;53.258;6.932;2023-03-01T00:52:27;103385.95;;;14.34;60.14
65659;BME280;60181;53.258;6.932;2023-03-01T00:56:31;103386.13;;;14.33;60.16
65659;BME280;60181;53.258;6.932;2023-03-01T01:00:35;103387.15;;;14.32;60.20
65659;BME280;60181;53.258;6.932;2023-03-01T01:04:39;103387.26;;;14.31;60.17
65659;BME280;60181;53.258;6.932;2023-03-01T01:08:43;103386.19;;;14.32;59.97
65659;BME280;60181;53.258;6.932;2023-03-01T01:12:47;103384.42;;;14.34;59.88
65659;BME280;60181;53.258;6.932;2023-03-01T01:16:51;103382.50;;;14.35;60.33
65659;BME280;60181;53.258;6.932;2023-03-01T01:20:55;103380.52;;;14.35;60.47
65659;BME280;60181;53.258;6.932;2023-03-01T01:24:59;103376.01;;;14.34;60.61
65659;BME280;60181;53.258;6.932;2023-03-01T01:29:04;103370.26;;;14.33;60.57
65659;BME280;60181;53.258;6.932;2023-03-01T01:33:07;103365.38;;;14.32;60.64
65659;BME280;60181;53.258;6.932;2023-03-01T01:37:11;103361.10;;;14.30;60.65
65659;BME280;60181;53.258;6.932;2023-03-01T01:41:15;103358.44;;;14.28;60.65
65659;BME280;60181;53.258;6.932;2023-03-01T01:45:32;103355.49;;;14.27;60.58
65659;BME280;60181;53.258;6.932;2023-03-01T01:53:27;103346.30;;;14.20;61.14
65659;BME280;60181;53.258;6.932;2023-03-01T01:57:32;103341.96;;;14.16;61.12
65659;BME280;60181;53.258;6.932;2023-03-01T02:01:35;103338.00;;;14.13;61.08
65659;BME280;60181;53.258;6.932;2023-03-01T02:09:45;103330.57;;;14.08;61.07
65659;BME280;60181;53.258;6.932;2023-03-01T02:13:47;103327.64;;;14.05;61.07
65659;BME280;60181;53.258;6.932;2023-03-01T02:17:52;103324.48;;;14.03;61.05
65659;BME280;60181;53.258;6.932;2023-03-01T02:26:05;103315.75;;;13.99;61.03
65659;BME280;60181;53.258;6.932;2023-03-01T02:30:04;103311.04;;;13.97;61.05
65659;BME280;60181;53.258;6.932;2023-03-01T02:34:08;103306.08;;;13.97;60.93
65659;BME280;60181;53.258;6.932;2023-03-01T02:38:11;103300.79;;;13.98;60.58
65659;BME280;60181;53.258;6.932;2023-03-01T02:42:17;103297.95;;;14.01;60.78
65659;BME280;60181;53.258;6.932;2023-03-01T02:46:20;103295.52;;;14.01;60.89
65659;BME280;60181;53.258;6.932;2023-03-01T02:54:40;103288.66;;;14.02;60.90
65659;BME280;60181;53.258;6.932;2023-03-01T02:58:31;103284.80;;;14.01;60.96
65659;BME280;60181;53.258;6.932;2023-03-01T03:02:35;103280.54;;;14.00;60.89
65659;BME280;60181;53.258;6.932;2023-03-01T03:06:39;103276.40;;;13.98;60.82
65659;BME280;60181;53.258;6.932;2023-03-01T03:10:43;103274.04;;;13.97;60.84
65659;BME280;60181;53.258;6.932;2023-03-01T03:14:47;103272.36;;;13.95;60.76
65659;BME280;60181;53.258;6.932;2023-03-01T03:18:52;103270.97;;;13.94;60.70
65659;BME280;60181;53.258;6.932;2023-03-01T03:22:57;103269.79;;;13.92;60.68
65659;BME280;60181;53.258;6.932;2023-03-01T03:26:59;103269.96;;;13.90;60.60
65659;BME280;60181;53.258;6.932;2023-03-01T03:31:03;103271.79;;;13.89;60.54
65659;BME280;60181;53.258;6.932;2023-03-01T03:35:08;103273.62;;;13.87;60.48
65659;BME280;60181;53.258;6.932;2023-03-01T03:39:11;103274.34;;;13.86;60.45
65659;BME280;60181;53.258;6.932;2023-03-01T03:43:19;103273.39;;;13.85;60.35
65659;BME280;60181;53.258;6.932;2023-03-01T03:47:19;103270.61;;;13.84;60.31
65659;BME280;60181;53.258;6.932;2023-03-01T03:51:23;103269.52;;;13.83;60.19
65659;BME280;60181;53.258;6.932;2023-03-01T03:55:27;103269.29;;;13.82;60.23
65659;BME280;60181;53.258;6.932;2023-03-01T03:59:31;103269.15;;;13.81;60.11
65659;BME280;60181;53.258;6.932;2023-03-01T04:03:35;103269.70;;;13.82;59.89
65659;BME280;60181;53.258;6.932;2023-03-01T04:07:39;103270.37;;;13.83;59.95
65659;BME280;60181;53.258;6.932;2023-03-01T04:11:43;103270.64;;;13.81;60.24
65659;BME280;60181;53.258;6.932;2023-03-01T04:15:51;103270.50;;;13.80;60.18
65659;BME280;60181;53.258;6.932;2023-03-01T04:19:51;103268.54;;;13.79;60.21
65659;BME280;60181;53.258;6.932;2023-03-01T04:23:55;103267.74;;;13.78;60.22
65659;BME280;60181;53.258;6.932;2023-03-01T04:27:59;103266.76;;;13.77;60.27
65659;BME280;60181;53.258;6.932;2023-03-01T04:32:03;103265.64;;;13.75;60.29
65659;BME280;60181;53.258;6.932;2023-03-01T04:36:07;103264.64;;;13.74;60.19
65659;BME280;60181;53.258;6.932;2023-03-01T04:40:11;103262.73;;;13.72;60.38
65659;BME280;60181;53.258;6.932;2023-03-01T04:44:15;103260.23;;;13.70;60.47
65659;BME280;60181;53.258;6.932;2023-03-01T04:48:19;103258.24;;;13.68;60.46
65659;BME280;60181;53.258;6.932;2023-03-01T04:52:23;103257.41;;;13.66;60.46
65659;BME280;60181;53.258;6.932;2023-03-01T04:56:27;103253.74;;;13.65;60.36
65659;BME280;60181;53.258;6.932;2023-03-01T05:00:31;103249.90;;;13.65;60.54
65659;BME280;60181;53.258;6.932;2023-03-01T05:04:35;103246.12;;;13.63;60.63
65659;BME280;60181;53.258;6.932;2023-03-01T05:08:39;103241.72;;;13.61;60.68
65659;BME280;60181;53.258;6.932;2023-03-01T05:12:43;103237.00;;;13.59;60.49
65659;BME280;60181;53.258;6.932;2023-03-01T05:16:47;103231.25;;;13.58;60.54
65659;BME280;60181;53.258;6.932;2023-03-01T05:20:51;103225.83;;;13.57;60.56
65659;BME280;60181;53.258;6.932;2023-03-01T05:24:55;103220.51;;;13.56;60.42
65659;BME280;60181;53.258;6.932;2023-03-01T05:28:59;103216.58;;;13.55;60.47
65659;BME280;60181;53.258;6.932;2023-03-01T05:33:03;103212.34;;;13.55;59.92
65659;BME280;60181;53.258;6.932;2023-03-01T05:37:07;103207.76;;;13.59;59.60
65659;BME280;60181;53.258;6.932;2023-03-01T05:41:14;103202.92;;;13.61;59.70
65659;BME280;60181;53.258;6.932;2023-03-01T05:45:15;103197.77;;;13.60;59.78
65659;BME280;60181;53.258;6.932;2023-03-01T05:49:19;103194.98;;;13.59;59.88
65659;BME280;60181;53.258;6.932;2023-03-01T05:53:23;103192.33;;;13.57;59.87
65659;BME280;60181;53.258;6.932;2023-03-01T05:57:30;103189.66;;;13.55;59.92
65659;BME280;60181;53.258;6.932;2023-03-01T06:01:32;103187.96;;;13.52;59.89
65659;BME280;60181;53.258;6.932;2023-03-01T06:05:35;103186.05;;;13.50;59.87
65659;BME280;60181;53.258;6.932;2023-03-01T06:09:39;103184.41;;;13.49;59.86
65659;BME280;60181;53.258;6.932;2023-03-01T06:13:43;103183.20;;;13.46;59.88
65659;BME280;60181;53.258;6.932;2023-03-01T06:17:47;103184.41;;;13.44;59.83
65659;BME280;60181;53.258;6.932;2023-03-01T06:21:51;103187.01;;;13.42;59.78
65659;BME280;60181;53.258;6.932;2023-03-01T06:25:55;103192.07;;;13.41;59.70
65659;BME280;60181;53.258;6.932;2023-03-01T06:29:59;103197.44;;;13.40;59.65
65659;BME280;60181;53.258;6.932;2023-03-01T06:34:03;103201.38;;;13.39;59.63
65659;BME280;60181;53.258;6.932;2023-03-01T06:38:07;103205.15;;;13.39;59.57
65659;BME280;60181;53.258;6.932;2023-03-01T06:42:11;103208.65;;;13.38;59.51
65659;BME280;60181;53.258;6.932;2023-03-01T06:46:15;103210.21;;;13.38;59.49
65659;BME280;60181;53.258;6.932;2023-03-01T06:50:19;103211.54;;;13.38;59.40
65659;BME280;60181;53.258;6.932;2023-03-01T06:54:23;103212.89;;;13.39;59.33
65659;BME280;60181;53.258;6.932;2023-03-01T06:58:27;103214.10;;;13.40;59.22
65659;BME280;60181;53.258;6.932;2023-03-01T07:02:31;103216.36;;;13.42;59.08
65659;BME280;60181;53.258;6.932;2023-03-01T07:06:35;103218.46;;;13.44;58.99
65659;BME280;60181;53.258;6.932;2023-03-01T07:10:39;103221.17;;;13.47;58.85
65659;BME280;60181;53.258;6.932;2023-03-01T07:14:43;103222.78;;;13.49;58.75
65659;BME280;60181;53.258;6.932;2023-03-01T07:18:47;103223.61;;;13.52;58.70
65659;BME280;60181;53.258;6.932;2023-03-01T07:22:51;103223.65;;;13.54;58.60
65659;BME280;60181;53.258;6.932;2023-03-01T07:26:55;103223.61;;;13.57;58.55
65659;BME280;60181;53.258;6.932;2023-03-01T07:31:02;103222.73;;;13.59;58.47
65659;BME280;60181;53.258;6.932;2023-03-01T07:35:03;103222.69;;;13.61;58.53
65659;BME280;60181;53.258;6.932;2023-03-01T07:39:07;103223.44;;;13.81;56.14
65659;BME280;60181;53.258;6.932;2023-03-01T07:43:11;103223.39;;;14.00;57.01
65659;BME280;60181;53.258;6.932;2023-03-01T07:47:15;103224.48;;;14.03;57.97
65659;BME280;60181;53.258;6.932;2023-03-01T07:51:19;103224.00;;;14.02;58.18
65659;BME280;60181;53.258;6.932;2023-03-01T07:55:23;103223.35;;;14.00;58.17
65659;BME280;60181;53.258;6.932;2023-03-01T07:59:27;103223.01;;;13.98;58.14
65659;BME280;60181;53.258;6.932;2023-03-01T08:03:31;103222.08;;;13.98;58.10
65659;BME280;60181;53.258;6.932;2023-03-01T08:07:35;103221.30;;;13.97;58.14
65659;BME280;60181;53.258;6.932;2023-03-01T08:11:39;103221.24;;;13.96;58.17
65659;BME280;60181;53.258;6.932;2023-03-01T08:15:43;103222.17;;;13.95;58.15
65659;BME280;60181;53.258;6.932;2023-03-01T08:19:47;103223.58;;;13.95;58.07
65659;BME280;60181;53.258;6.932;2023-03-01T08:23:51;103223.47;;;13.96;57.93
65659;BME280;60181;53.258;6.932;2023-03-01T08:27:55;103222.80;;;13.99;57.70
65659;BME280;60181;53.258;6.932;2023-03-01T08:31:59;103223.54;;;14.03;57.48
65659;BME280;60181;53.258;6.932;2023-03-01T08:36:04;103223.14;;;14.10;57.34
65659;BME280;60181;53.258;6.932;2023-03-01T08:40:07;103221.15;;;14.18;57.16
65659;BME280;60181;53.258;6.932;2023-03-01T08:44:11;103219.97;;;14.27;56.89
65659;BME280;60181;53.258;6.932;2023-03-01T08:48:15;103220.41;;;14.36;56.73
65659;BME280;60181;53.258;6.932;2023-03-01T08:52:19;103221.06;;;14.44;56.68
65659;BME280;60181;53.258;6.932;2023-03-01T08:56:23;103219.87;;;14.51;56.59
65659;BME280;60181;53.258;6.932;2023-03-01T09:00:27;103219.82;;;14.60;56.40
65659;BME280;60181;53.258;6.932;2023-03-01T09:04:31;103217.91;;;14.95;53.84
65659;BME280;60181;53.258;6.932;2023-03-01T09:08:35;103216.46;;;15.17;54.66
65659;BME280;60181;53.258;6.932;2023-03-01T09:12:39;103214.25;;;15.28;55.22
65659;BME280;60181;53.258;6.932;2023-03-01T09:16:43;103211.55;;;15.35;55.50
65659;BME280;60181;53.258;6.932;2023-03-01T09:20:47;103208.36;;;15.39;55.57
65659;BME280;60181;53.258;6.932;2023-03-01T09:24:51;103204.92;;;15.42;55.64
65659;BME280;60181;53.258;6.932;2023-03-01T09:28:55;103203.30;;;15.44;55.67
65659;BME280;60181;53.258;6.932;2023-03-01T09:32:59;103202.06;;;15.46;55.75
65659;BME280;60181;53.258;6.932;2023-03-01T09:37:03;103201.45;;;15.47;55.78
65659;BME280;60181;53.258;6.932;2023-03-01T09:45:11;103199.85;;;15.48;55.81
65659;BME280;60181;53.258;6.932;2023-03-01T09:49:15;103198.69;;;15.48;55.90
65659;BME280;60181;53.258;6.932;2023-03-01T09:53:20;103197.81;;;15.47;56.00
65659;BME280;60181;53.258;6.932;2023-03-01T09:57:30;103197.03;;;15.46;56.06
65659;BME280;60181;53.258;6.932;2023-03-01T10:09:36;103197.03;;;15.42;56.22
65659;BME280;60181;53.258;6.932;2023-03-01T10:13:50;103197.94;;;15.41;56.37
65659;BME280;60181;53.258;6.932;2023-03-01T10:17:52;103199.54;;;15.39;56.32
65659;BME280;60181;53.258;6.932;2023-03-01T10:21:47;103199.79;;;15.38;56.51
65659;BME280;60181;53.258;6.932;2023-03-01T10:30:00;103196.75;;;15.33;56.67
65659;BME280;60181;53.258;6.932;2023-03-01T10:33:59;103194.75;;;15.31;56.71
65659;BME280;60181;53.258;6.932;2023-03-01T10:38:04;103192.98;;;15.28;56.83
65659;BME280;60181;53.258;6.932;2023-03-01T10:42:18;103189.62;;;15.25;56.82
65659;BME280;60181;53.258;6.932;2023-03-01T10:50:22;103181.68;;;15.19;56.79
65659;BME280;60181;53.258;6.932;2023-03-01T10:54:29;103178.47;;;15.16;56.88
65659;BME280;60181;53.258;6.932;2023-03-01T10:58:23;103177.49;;;15.12;56.86
65659;BME280;60181;53.258;6.932;2023-03-01T11:02:30;103175.67;;;15.09;56.93
65659;BME280;60181;53.258;6.932;2023-03-01T11:06:31;103173.17;;;15.05;57.14
65659;BME280;60181;53.258;6.932;2023-03-01T11:10:35;103171.78;;;15.02;57.26
65659;BME280;60181;53.258;6.932;2023-03-01T11:14:39;103170.03;;;14.98;57.32
65659;BME280;60181;53.258;6.932;2023-03-01T11:18:43;103168.97;;;14.95;57.45
65659;BME280;60181;53.258;6.932;2023-03-01T11:22:50;103168.98;;;14.92;57.56
65659;BME280;60181;53.258;6.932;2023-03-01T11:26:52;103168.58;;;14.88;57.58
65659;BME280;60181;53.258;6.932;2023-03-01T11:30:56;103168.87;;;14.86;57.56
65659;BME280;60181;53.258;6.932;2023-03-01T11:35:08;103165.80;;;14.83;57.59
65659;BME280;60181;53.258;6.932;2023-03-01T11:43:19;103158.91;;;14.79;57.57
65659;BME280;60181;53.258;6.932;2023-03-01T11:51:20;103156.41;;;14.77;57.71
65659;BME280;60181;53.258;6.932;2023-03-01T11:55:25;103156.26;;;14.76;57.68
65659;BME280;60181;53.258;6.932;2023-03-01T11:59:29;103156.40;;;14.75;57.65
65659;BME280;60181;53.258;6.932;2023-03-01T12:11:49;103150.99;;;14.72;57.72
65659;BME280;60181;53.258;6.932;2023-03-01T12:19:47;103142.90;;;14.71;57.64
65659;BME280;60181;53.258;6.932;2023-03-01T12:23:57;103137.04;;;14.71;57.65
65659;BME280;60181;53.258;6.932;2023-03-01T12:31:59;103125.57;;;14.71;57.58
65659;BME280;60181;53.258;6.932;2023-03-01T12:36:14;103119.92;;;14.71;57.55
65659;BME280;60181;53.258;6.932;2023-03-01T12:40:21;103113.90;;;14.71;57.49
65659;BME280;60181;53.258;6.932;2023-03-01T12:44:11;103108.72;;;14.72;57.39
65659;BME280;60181;53.258;6.932;2023-03-01T12:48:18;103105.42;;;14.73;57.62
65659;BME280;60181;53.258;6.932;2023-03-01T12:52:16;103100.16;;;14.79;57.10
65659;BME280;60181;53.258;6.932;2023-03-01T12:56:22;103093.64;;;14.83;57.40
65659;BME280;60181;53.258;6.932;2023-03-01T13:08:39;103076.45;;;14.80;57.69
65659;BME280;60181;53.258;6.932;2023-03-01T13:12:59;103070.42;;;14.78;57.76
65659;BME280;60181;53.258;6.932;2023-03-01T13:16:39;103066.48;;;14.77;57.80
65659;BME280;60181;53.258;6.932;2023-03-01T13:20:46;103062.39;;;14.76;57.87
65659;BME280;60181;53.258;6.932;2023-03-01T13:24:46;103057.85;;;14.74;57.81
65659;BME280;60181;53.258;6.932;2023-03-01T13:28:51;103053.42;;;14.73;57.80
65659;BME280;60181;53.258;6.932;2023-03-01T13:33:08;103049.82;;;14.72;57.84
65659;BME280;60181;53.258;6.932;2023-03-01T13:37:08;103047.71;;;14.71;57.85
65659;BME280;60181;53.258;6.932;2023-03-01T13:41:03;103044.92;;;14.70;57.84
65659;BME280;60181;53.258;6.932;2023-03-01T13:45:16;103040.86;;;14.71;57.34
65659;BME280;60181;53.258;6.932;2023-03-01T13:49:11;103034.83;;;14.76;57.18
65659;BME280;60181;53.258;6.932;2023-03-01T13:53:18;103029.79;;;14.77;57.58
65659;BME280;60181;53.258;6.932;2023-03-01T13:57:24;103025.15;;;14.77;57.77
65659;BME280;60181;53.258;6.932;2023-03-01T14:01:24;103020.43;;;14.75;57.82
65659;BME280;60181;53.258;6.932;2023-03-01T14:05:26;103016.92;;;14.74;57.83
65659;BME280;60181;53.258;6.932;2023-03-01T14:09:30;103014.31;;;14.72;57.84
65659;BME280;60181;53.258;6.932;2023-03-01T14:13:41;103012.35;;;14.71;57.85
65659;BME280;60181;53.258;6.932;2023-03-01T14:17:44;103009.91;;;14.70;57.87
65659;BME280;60181;53.258;6.932;2023-03-01T14:21:42;103007.63;;;14.69;57.78
65659;BME280;60181;53.258;6.932;2023-03-01T14:25:47;103004.87;;;14.68;57.86
65659;BME280;60181;53.258;6.932;2023-03-01T14:29:54;103001.06;;;14.67;57.91
65659;BME280;60181;53.258;6.932;2023-03-01T14:33:55;102996.48;;;14.66;57.82
65659;BME280;60181;53.258;6.932;2023-03-01T14:37:58;102992.09;;;14.65;57.90
65659;BME280;60181;53.258;6.932;2023-03-01T14:42:04;102987.77;;;14.64;57.90
65659;BME280;60181;53.258;6.932;2023-03-01T14:46:15;102982.36;;;14.64;57.84
65659;BME280;60181;53.258;6.932;2023-03-01T14:50:26;102978.43;;;14.63;57.86
65659;BME280;60181;53.258;6.932;2023-03-01T14:54:21;102974.60;;;14.62;57.88
65659;BME280;60181;53.258;6.932;2023-03-01T14:58:19;102969.54;;;14.61;57.91
65659;BME280;60181;53.258;6.932;2023-03-01T15:02:25;102963.06;;;14.60;57.88
65659;BME280;60181;53.258;6.932;2023-03-01T15:06:26;102957.90;;;14.59;57.91
65659;BME280;60181;53.258;6.932;2023-03-01T15:10:32;102952.83;;;14.58;57.85
65659;BME280;60181;53.258;6.932;2023-03-01T15:14:41;102947.45;;;14.58;57.87
65659;BME280;60181;53.258;6.932;2023-03-01T15:18:51;102941.72;;;14.57;57.95
65659;BME280;60181;53.258;6.932;2023-03-01T15:22:45;102936.73;;;14.56;57.93
65659;BME280;60181;53.258;6.932;2023-03-01T15:26:53;102933.67;;;14.56;57.90
65659;BME280;60181;53.258;6.932;2023-03-01T15:30:57;102929.92;;;14.55;57.92
65659;BME280;60181;53.258;6.932;2023-03-01T15:34:54;102926.35;;;14.55;57.88
65659;BME280;60181;53.258;6.932;2023-03-01T15:38:59;102922.42;;;14.69;56.64
65659;BME280;60181;53.258;6.932;2023-03-01T15:43:03;102917.72;;;14.79;57.09
65659;BME280;60181;53.258;6.932;2023-03-01T15:51:10;102907.68;;;14.77;57.99
65659;BME280;60181;53.258;6.932;2023-03-01T15:55:18;102901.55;;;14.74;58.14
65659;BME280;60181;53.258;6.932;2023-03-01T15:59:18;102896.29;;;14.71;58.16
65659;BME280;60181;53.258;6.932;2023-03-01T16:03:22;102893.21;;;14.69;58.19
65659;BME280;60181;53.258;6.932;2023-03-01T16:07:26;102890.25;;;14.66;58.25
65659;BME280;60181;53.258;6.932;2023-03-01T16:11:30;102888.09;;;14.64;58.27
65659;BME280;60181;53.258;6.932;2023-03-01T16:15:34;102886.95;;;14.62;58.26
65659;BME280;60181;53.258;6.932;2023-03-01T16:19:38;102885.05;;;14.60;58.28
65659;BME280;60181;53.258;6.932;2023-03-01T16:23:43;102885.40;;;14.59;58.32
65659;BME280;60181;53.258;6.932;2023-03-01T16:27:47;102886.05;;;14.57;58.36
65659;BME280;60181;53.258;6.932;2023-03-01T16:31:50;102887.61;;;14.55;58.43
65659;BME280;60181;53.258;6.932;2023-03-01T16:35:54;102889.49;;;14.53;58.47
65659;BME280;60181;53.258;6.932;2023-03-01T16:39:58;102889.72;;;14.51;58.51
65659;BME280;60181;53.258;6.932;2023-03-01T16:44:02;102891.06;;;14.49;58.56
65659;BME280;60181;53.258;6.932;2023-03-01T16:48:06;102892.29;;;14.47;58.59
65659;BME280;60181;53.258;6.932;2023-03-01T16:52:10;102893.75;;;14.45;58.62
65659;BME280;60181;53.258;6.932;2023-03-01T16:56:14;102894.93;;;14.43;58.65
65659;BME280;60181;53.258;6.932;2023-03-01T17:00:18;102895.50;;;14.41;58.73
65659;BME280;60181;53.258;6.932;2023-03-01T17:04:22;102894.65;;;14.39;58.72
65659;BME280;60181;53.258;6.932;2023-03-01T17:08:26;102893.69;;;14.38;58.74
65659;BME280;60181;53.258;6.932;2023-03-01T17:12:30;102893.10;;;14.36;58.79
65659;BME280;60181;53.258;6.932;2023-03-01T17:16:34;102892.87;;;14.34;58.76
65659;BME280;60181;53.258;6.932;2023-03-01T17:20:38;102893.08;;;14.33;58.77
65659;BME280;60181;53.258;6.932;2023-03-01T17:24:43;102894.30;;;14.35;58.42
65659;BME280;60181;53.258;6.932;2023-03-01T17:28:46;102895.98;;;14.41;58.18
65659;BME280;60181;53.258;6.932;2023-03-01T17:32:50;102897.08;;;14.44;58.36
65659;BME280;60181;53.258;6.932;2023-03-01T17:36:54;102898.82;;;14.43;58.50
65659;BME280;60181;53.258;6.932;2023-03-01T17:40:59;102901.68;;;14.42;58.56
65659;BME280;60181;53.258;6.932;2023-03-01T17:45:02;102904.92;;;14.40;58.59
65659;BME280;60181;53.258;6.932;2023-03-01T17:49:06;102909.19;;;14.38;58.60
65659;BME280;60181;53.258;6.932;2023-03-01T17:53:10;102912.23;;;14.36;58.56
65659;BME280;60181;53.258;6.932;2023-03-01T17:57:14;102916.63;;;14.34;58.59
65659;BME280;60181;53.258;6.932;2023-03-01T18:01:19;102921.92;;;14.33;58.55
65659;BME280;60181;53.258;6.932;2023-03-01T18:05:22;102926.38;;;14.32;58.59
65659;BME280;60181;53.258;6.932;2023-03-01T18:09:26;102931.43;;;14.30;58.55
65659;BME280;60181;53.258;6.932;2023-03-01T18:13:30;102935.90;;;14.29;58.53
65659;BME280;60181;53.258;6.932;2023-03-01T18:17:34;102939.56;;;14.28;58.52
65659;BME280;60181;53.258;6.932;2023-03-01T18:21:38;102943.38;;;14.26;58.49
65659;BME280;60181;53.258;6.932;2023-03-01T18:25:42;102947.71;;;14.26;58.55
65659;BME280;60181;53.258;6.932;2023-03-01T18:29:46;102950.78;;;14.25;58.50
65659;BME280;60181;53.258;6.932;2023-03-01T18:33:51;102953.53;;;14.24;58.52
65659;BME280;60181;53.258;6.932;2023-03-01T18:37:54;102954.46;;;14.24;58.65
65659;BME280;60181;53.258;6.932;2023-03-01T18:41:58;102954.54;;;14.25;58.45
65659;BME280;60181;53.258;6.932;2023-03-01T18:46:02;102953.67;;;14.25;58.55
65659;BME280;60181;53.258;6.932;2023-03-01T18:50:06;102953.00;;;14.24;58.58
65659;BME280;60181;53.258;6.932;2023-03-01T18:54:10;102951.06;;;14.24;58.58
65659;BME280;60181;53.258;6.932;2023-03-01T18:58:14;102950.61;;;14.23;58.57
65659;BME280;60181;53.258;6.932;2023-03-01T19:02:18;102950.02;;;14.23;58.57
65659;BME280;60181;53.258;6.932;2023-03-01T19:06:22;102950.27;;;14.22;58.59
65659;BME280;60181;53.258;6.932;2023-03-01T19:10:26;102950.10;;;14.22;58.61
65659;BME280;60181;53.258;6.932;2023-03-01T19:14:30;102949.04;;;14.22;58.55
65659;BME280;60181;53.258;6.932;2023-03-01T19:18:34;102948.99;;;14.21;58.49
65659;BME280;60181;53.258;6.932;2023-03-01T19:22:38;102950.22;;;14.21;58.48
65659;BME280;60181;53.258;6.932;2023-03-01T19:26:42;102951.53;;;14.21;58.52
65659;BME280;60181;53.258;6.932;2023-03-01T19:30:46;102953.59;;;14.21;58.50
65659;BME280;60181;53.258;6.932;2023-03-01T19:34:50;102955.79;;;14.21;58.48
65659;BME280;60181;53.258;6.932;2023-03-01T19:38:54;102958.65;;;14.20;58.48
65659;BME280;60181;53.258;6.932;2023-03-01T19:42:58;102960.62;;;14.20;58.46
65659;BME280;60181;53.258;6.932;2023-03-01T19:47:02;102963.01;;;14.20;58.51
65659;BME280;60181;53.258;6.932;2023-03-01T19:51:06;102964.88;;;14.19;58.49
65659;BME280;60181;53.258;6.932;2023-03-01T19:55:10;102966.59;;;14.19;58.78
65659;BME280;60181;53.258;6.932;2023-03-01T19:59:14;102966.65;;;14.21;58.46
65659;BME280;60181;53.258;6.932;2023-03-01T20:03:18;102966.33;;;14.22;58.45
65659;BME280;60181;53.258;6.932;2023-03-01T20:07:22;102966.09;;;14.22;58.51
65659;BME280;60181;53.258;6.932;2023-03-01T20:11:26;102967.15;;;14.22;58.48
65659;BME280;60181;53.258;6.932;2023-03-01T20:15:30;102968.48;;;14.22;58.48
65659;BME280;60181;53.258;6.932;2023-03-01T20:19:34;102969.68;;;14.22;58.54
65659;BME280;60181;53.258;6.932;2023-03-01T20:23:38;102969.75;;;14.21;58.58
65659;BME280;60181;53.258;6.932;2023-03-01T20:27:42;102969.75;;;14.21;58.59
65659;BME280;60181;53.258;6.932;2023-03-01T20:31:46;102969.59;;;14.21;58.58
65659;BME280;60181;53.258;6.932;2023-03-01T20:35:50;102969.49;;;14.21;58.55
65659;BME280;60181;53.258;6.932;2023-03-01T20:39:54;102969.49;;;14.21;58.55
65659;BME280;60181;53.258;6.932;2023-03-01T20:43:58;102971.90;;;14.21;58.56
65659;BME280;60181;53.258;6.932;2023-03-01T20:48:02;102973.46;;;14.21;58.55
65659;BME280;60181;53.258;6.932;2023-03-01T20:52:06;102975.51;;;14.21;58.53
65659;BME280;60181;53.258;6.932;2023-03-01T20:56:11;102977.38;;;14.21;58.51
65659;BME280;60181;53.258;6.932;2023-03-01T21:00:14;102979.92;;;14.20;58.51
65659;BME280;60181;53.258;6.932;2023-03-01T21:04:18;102981.48;;;14.20;58.53
65659;BME280;60181;53.258;6.932;2023-03-01T21:08:22;102982.30;;;14.20;58.51
65659;BME280;60181;53.258;6.932;2023-03-01T21:12:26;102983.50;;;14.19;58.49
65659;BME280;60181;53.258;6.932;2023-03-01T21:16:30;102984.07;;;14.19;58.56
65659;BME280;60181;53.258;6.932;2023-03-01T21:20:34;102984.81;;;14.19;58.56
65659;BME280;60181;53.258;6.932;2023-03-01T21:24:38;102983.90;;;14.19;58.57
65659;BME280;60181;53.258;6.932;2023-03-01T21:28:42;102982.30;;;14.18;58.55
65659;BME280;60181;53.258;6.932;2023-03-01T21:32:46;102979.98;;;14.18;58.79
65659;BME280;60181;53.258;6.932;2023-03-01T21:36:50;102976.94;;;14.15;55.31
65659;BME280;60181;53.258;6.932;2023-03-01T21:40:54;102975.06;;;13.98;55.20
65659;BME280;60181;53.258;6.932;2023-03-01T21:44:58;102973.77;;;13.78;54.93
65659;BME280;60181;53.258;6.932;2023-03-01T21:49:02;102973.32;;;13.59;54.25
65659;BME280;60181;53.258;6.932;2023-03-01T21:53:06;102972.80;;;13.42;53.98
65659;BME280;60181;53.258;6.932;2023-03-01T21:57:10;102970.61;;;13.26;53.61
65659;BME280;60181;53.258;6.932;2023-03-01T22:01:15;102967.29;;;13.12;53.11
65659;BME280;60181;53.258;6.932;2023-03-01T22:05:18;102964.77;;;13.00;52.96
65659;BME280;60181;53.258;6.932;2023-03-01T22:09:22;102962.49;;;12.91;52.82
65659;BME280;60181;53.258;6.932;2023-03-01T22:13:26;102962.24;;;12.86;52.76
65659;BME280;60181;53.258;6.932;2023-03-01T22:17:30;102961.36;;;12.82;52.53
65659;BME280;60181;53.258;6.932;2023-03-01T22:21:36;102961.62;;;12.78;52.62
65659;BME280;60181;53.258;6.932;2023-03-01T22:25:40;102961.84;;;12.74;52.40
65659;BME280;60181;53.258;6.932;2023-03-01T22:29:42;102963.18;;;12.70;52.18